Volente, Texas
Current Conditions -  °F | °C
As of 9:35 PM on Sunday 21 Dec 2014 (Local Time) from KRYW Reporting Station
Overcast Overcast  
Wind Chill: 54°   Ceiling: 1200
Heat Index: 54°   Visibility: 10mi
Dew Point: 49°   Wind: 12mph
Humidity: 84%   Direction: 200°SSW
Pressure: 29.84"   Gusts: 17mph
Location:  30.558°N, 97.9247°W
Report Text: KRYW 220335Z AUTO 20010G15KT 10SM OVC012 12/10 A2984 RMK AO2 T01220095
Loading
Personal Weather Stations






























Interactive Weather Map New forecast layout! Learn more

10-Day Weather Forecast

Advertisements
Track Severe Weather on mobile